createdAt,value
2018-03-24T00:02:02.200Z,91.68
2018-03-24T00:04:27.978Z,91.50
2018-03-24T00:06:53.707Z,91.56
2018-03-24T00:09:19.466Z,91.52
2018-03-24T00:11:45.189Z,91.47
2018-03-24T00:14:10.902Z,91.61
2018-03-24T00:16:36.627Z,91.94
2018-03-24T00:19:02.374Z,92.06
2018-03-24T00:21:28.094Z,92.34
2018-03-24T00:23:53.819Z,92.16
2018-03-24T00:26:19.521Z,92.19
2018-03-24T00:28:45.237Z,91.94
2018-03-24T00:31:11.006Z,91.95
2018-03-24T00:33:36.736Z,91.79
2018-03-24T00:36:02.450Z,92.00
2018-03-24T00:38:28.173Z,91.92
2018-03-24T00:40:54.325Z,91.82
2018-03-24T00:43:20.062Z,91.96
2018-03-24T00:45:45.802Z,92.00
2018-03-24T00:48:11.533Z,91.75
2018-03-24T00:50:37.270Z,91.90
2018-03-24T00:53:02.989Z,91.79
2018-03-24T00:55:28.709Z,91.95
2018-03-24T00:57:54.445Z,91.73
2018-03-24T01:00:20.181Z,91.74
2018-03-24T01:02:45.894Z,91.65
2018-03-24T01:05:11.626Z,91.66
2018-03-24T01:07:37.342Z,91.72
2018-03-24T01:10:03.072Z,91.75
2018-03-24T01:12:28.849Z,91.61
2018-03-24T01:14:54.541Z,91.48
2018-03-24T01:17:20.253Z,91.76
2018-03-24T01:19:45.979Z,91.66
2018-03-24T01:22:11.709Z,91.57
2018-03-24T01:24:37.446Z,91.81
2018-03-24T01:27:03.222Z,91.69
2018-03-24T01:29:28.957Z,91.86
2018-03-24T01:31:54.700Z,91.74
2018-03-24T01:34:20.426Z,91.54
2018-03-24T01:36:46.162Z,91.52
2018-03-24T01:39:11.877Z,91.52
2018-03-24T01:41:37.625Z,91.34
2018-03-24T01:44:03.366Z,91.60
2018-03-24T01:46:29.097Z,91.63
2018-03-24T01:48:54.838Z,91.78
2018-03-24T01:51:20.575Z,91.65
2018-03-24T01:53:53.323Z,91.71
2018-03-24T01:56:19.049Z,91.79
2018-03-24T01:58:44.774Z,91.75
2018-03-24T02:01:10.505Z,91.71
2018-03-24T02:03:36.230Z,91.63
2018-03-24T02:06:01.958Z,91.85
2018-03-24T02:08:27.738Z,91.85
2018-03-24T02:10:53.489Z,91.67
2018-03-24T02:13:19.246Z,91.78
2018-03-24T02:15:44.974Z,91.92
2018-03-24T02:18:10.699Z,91.97
2018-03-24T02:20:36.421Z,91.87
2018-03-24T02:23:02.154Z,91.99
2018-03-24T02:25:27.890Z,91.80
2018-03-24T02:27:53.637Z,91.74
2018-03-24T02:30:19.675Z,91.85
2018-03-24T02:32:45.410Z,91.68
2018-03-24T02:35:11.131Z,91.83
2018-03-24T02:37:36.863Z,91.84
2018-03-24T02:40:02.599Z,92.01
2018-03-24T02:42:28.321Z,91.92
2018-03-24T02:44:54.086Z,91.85
2018-03-24T02:47:19.777Z,91.85
2018-03-24T02:49:45.499Z,91.77
2018-03-24T02:52:11.229Z,91.70
2018-03-24T02:54:36.969Z,91.90
2018-03-24T02:57:02.690Z,91.98
2018-03-24T02:59:28.418Z,92.02
2018-03-24T03:01:54.144Z,91.79
2018-03-24T03:04:19.861Z,91.95
2018-03-24T03:06:45.570Z,91.93
2018-03-24T03:09:11.310Z,91.84
2018-03-24T03:11:37.020Z,92.08
2018-03-24T03:14:02.750Z,92.06
2018-03-24T03:16:28.470Z,92.12
2018-03-24T03:18:54.190Z,92.16
2018-03-24T03:21:19.902Z,92.26
2018-03-24T03:23:45.649Z,92.26
2018-03-24T03:26:11.374Z,92.10
2018-03-24T03:28:37.101Z,92.21
2018-03-24T03:33:56.542Z,92.12
2018-03-24T03:36:22.250Z,92.06
2018-03-24T03:38:47.974Z,92.05
2018-03-24T03:41:13.699Z,92.10
2018-03-24T03:43:39.417Z,92.02
2018-03-24T03:46:05.131Z,91.93
2018-03-24T03:48:30.865Z,92.04
2018-03-24T03:50:56.582Z,92.07
2018-03-24T03:53:22.297Z,91.85
2018-03-24T03:55:48.018Z,91.78
2018-03-24T03:58:13.755Z,91.82
2018-03-24T04:00:46.626Z,91.68
2018-03-24T04:03:12.350Z,91.99
2018-03-24T04:05:38.086Z,91.76
2018-03-24T04:08:03.796Z,91.88
2018-03-24T04:10:29.522Z,91.88
2018-03-24T04:12:55.242Z,91.77
2018-03-24T04:15:20.994Z,91.87
2018-03-24T04:17:46.701Z,91.92
2018-03-24T04:20:12.435Z,91.91
2018-03-24T04:22:38.148Z,91.82
2018-03-24T04:25:03.882Z,91.86
2018-03-24T04:27:29.610Z,91.83
2018-03-24T04:29:55.346Z,91.29
2018-03-24T04:32:21.066Z,91.64
2018-03-24T04:34:46.802Z,91.59
2018-03-24T04:37:12.530Z,91.53
2018-03-24T04:39:38.258Z,91.67
2018-03-24T04:42:03.987Z,91.49
2018-03-24T04:44:29.713Z,91.74
2018-03-24T04:46:55.450Z,91.71
2018-03-24T04:49:21.173Z,91.53
2018-03-24T04:51:46.930Z,91.76
2018-03-24T04:54:12.663Z,91.63
2018-03-24T04:56:38.401Z,91.80
2018-03-24T04:59:04.134Z,91.68
2018-03-24T05:01:29.859Z,91.64
2018-03-24T05:03:55.586Z,91.73
2018-03-24T05:06:21.337Z,91.96
2018-03-24T05:08:47.062Z,92.00
2018-03-24T05:11:12.802Z,91.29
2018-03-24T05:13:38.517Z,91.37
2018-03-24T05:16:04.259Z,91.42
2018-03-24T05:18:29.999Z,91.56
2018-03-24T05:20:55.742Z,91.46
2018-03-24T05:23:21.462Z,91.19
2018-03-24T05:25:47.202Z,91.45
2018-03-24T05:28:12.942Z,92.00
2018-03-24T05:30:38.658Z,91.16
2018-03-24T05:33:04.393Z,91.07
2018-03-24T05:35:30.120Z,91.68
2018-03-24T05:37:55.863Z,92.08
2018-03-24T05:40:21.586Z,91.85
2018-03-24T05:42:47.321Z,91.78
2018-03-24T05:45:13.046Z,91.96
2018-03-24T05:47:38.781Z,92.02
2018-03-24T05:50:04.509Z,91.91
2018-03-24T05:52:30.246Z,91.76
2018-03-24T05:54:55.977Z,91.73
2018-03-24T05:57:21.706Z,91.88
2018-03-24T05:59:47.429Z,91.85
2018-03-24T06:02:13.165Z,91.61
2018-03-24T06:04:38.878Z,91.73
2018-03-24T06:07:04.618Z,91.58
2018-03-24T06:09:30.349Z,91.67
2018-03-24T06:11:56.084Z,91.53
2018-03-24T06:14:21.813Z,91.45
2018-03-24T06:16:47.561Z,91.24
2018-03-24T06:19:13.286Z,91.12
2018-03-24T06:21:39.009Z,91.01
2018-03-24T06:24:04.763Z,90.88
2018-03-24T06:26:30.482Z,91.06
2018-03-24T06:28:56.231Z,90.82
2018-03-24T06:31:22.816Z,90.74
2018-03-24T06:33:48.562Z,90.81
2018-03-24T06:36:14.296Z,90.46
2018-03-24T06:38:40.042Z,90.70
2018-03-24T06:41:05.774Z,90.87
2018-03-24T06:43:31.506Z,90.43
2018-03-24T06:45:57.246Z,90.16
2018-03-24T06:48:22.994Z,90.02
2018-03-24T06:50:48.722Z,90.22
2018-03-24T06:53:14.457Z,89.73
2018-03-24T06:55:40.186Z,89.80
2018-03-24T06:58:05.926Z,90.12
2018-03-24T07:00:31.667Z,89.99
2018-03-24T07:02:57.398Z,89.63
2018-03-24T07:05:23.142Z,89.45
2018-03-24T07:07:48.910Z,89.34
2018-03-24T07:10:14.622Z,89.29
2018-03-24T07:12:40.353Z,89.06
2018-03-24T07:15:06.116Z,89.01
2018-03-24T07:17:31.845Z,89.22
2018-03-24T07:19:57.587Z,88.98
2018-03-24T07:22:23.319Z,88.91
2018-03-24T07:24:49.061Z,88.92
2018-03-24T07:27:14.783Z,88.66
2018-03-24T07:29:40.508Z,88.56
2018-03-24T07:32:06.223Z,88.42
2018-03-24T07:34:31.950Z,88.31
2018-03-24T07:36:57.683Z,88.29
2018-03-24T07:39:23.427Z,88.39
2018-03-24T07:41:49.179Z,88.16
2018-03-24T07:44:14.910Z,87.99
2018-03-24T07:46:40.630Z,87.69
2018-03-24T07:49:06.383Z,87.73
2018-03-24T07:51:32.126Z,87.73
2018-03-24T07:53:57.863Z,87.36
2018-03-24T07:56:23.598Z,86.94
2018-03-24T07:58:49.315Z,86.89
2018-03-24T08:01:15.058Z,87.29
2018-03-24T08:03:40.775Z,86.23
2018-03-24T08:06:06.518Z,86.03
2018-03-24T08:08:32.246Z,86.39
2018-03-24T08:10:57.977Z,85.95
2018-03-24T08:13:23.703Z,85.65
2018-03-24T08:15:49.437Z,85.64
2018-03-24T08:18:15.162Z,85.98
2018-03-24T08:20:40.901Z,85.42
2018-03-24T08:23:06.642Z,85.16
2018-03-24T08:25:32.377Z,85.48
2018-03-24T08:27:58.111Z,84.78
2018-03-24T08:30:23.894Z,84.30
2018-03-24T08:32:49.599Z,84.33
2018-03-24T08:35:15.338Z,84.19
2018-03-24T08:37:41.063Z,84.13
2018-03-24T08:40:06.802Z,84.46
2018-03-24T08:42:32.530Z,84.87
2018-03-24T08:44:58.269Z,84.63
2018-03-24T08:47:24.004Z,84.54
2018-03-24T08:49:49.742Z,83.89
2018-03-24T08:52:15.458Z,83.94
2018-03-24T08:54:41.202Z,83.40
2018-03-24T08:57:06.927Z,83.33
2018-03-24T08:59:32.641Z,82.61
2018-03-24T09:01:58.374Z,83.18
2018-03-24T09:04:24.103Z,82.86
2018-03-24T09:06:49.847Z,82.77
2018-03-24T09:09:15.567Z,81.87
2018-03-24T09:11:41.293Z,81.55
2018-03-24T09:14:07.018Z,81.45
2018-03-24T09:16:32.752Z,82.68
2018-03-24T09:18:58.502Z,82.12
2018-03-24T09:21:24.227Z,82.08
2018-03-24T09:23:49.964Z,82.15
2018-03-24T09:26:15.691Z,82.01
2018-03-24T09:28:41.410Z,81.16
2018-03-24T09:31:07.186Z,81.04
2018-03-24T09:33:32.922Z,81.29
2018-03-24T09:35:58.658Z,80.75
2018-03-24T09:38:24.385Z,81.16
2018-03-24T09:40:50.119Z,80.13
2018-03-24T09:43:15.842Z,79.96
2018-03-24T09:45:41.589Z,80.03
2018-03-24T09:48:07.325Z,80.04
2018-03-24T09:50:33.035Z,80.29
2018-03-24T09:52:58.774Z,80.29
2018-03-24T09:55:24.502Z,79.94
2018-03-24T09:57:50.244Z,79.33
2018-03-24T10:00:15.966Z,79.99
2018-03-24T10:02:41.706Z,79.32
2018-03-24T10:05:07.435Z,79.24
2018-03-24T10:07:33.178Z,79.58
2018-03-24T10:09:58.907Z,79.85
2018-03-24T10:12:24.634Z,78.92
2018-03-24T10:14:50.361Z,78.93
2018-03-24T10:17:16.087Z,79.11
2018-03-24T10:19:41.818Z,78.43
2018-03-24T10:25:13.007Z,78.35
2018-03-24T10:27:38.730Z,77.37
2018-03-24T10:30:04.468Z,77.98
2018-03-24T10:32:33.001Z,77.88
2018-03-24T10:35:04.786Z,78.58
2018-03-24T10:37:30.538Z,77.74
2018-03-24T10:39:56.262Z,78.18
2018-03-24T10:42:22.064Z,77.27
2018-03-24T10:44:47.866Z,77.10
2018-03-24T10:47:13.634Z,76.45
2018-03-24T10:49:39.364Z,76.56
2018-03-24T10:52:05.096Z,76.87
2018-03-24T10:54:30.814Z,75.93
2018-03-24T10:56:56.579Z,75.96
2018-03-24T10:59:22.301Z,77.71
2018-03-24T11:01:48.045Z,75.57
2018-03-24T11:04:13.813Z,75.10
2018-03-24T11:06:39.526Z,75.56
2018-03-24T11:09:05.250Z,75.53
2018-03-24T11:11:30.970Z,75.72
2018-03-24T11:13:56.723Z,75.66
2018-03-24T11:16:22.446Z,74.65
2018-03-24T11:18:48.181Z,75.66
2018-03-24T11:21:13.906Z,75.60
2018-03-24T11:23:39.639Z,75.28
2018-03-24T11:26:05.458Z,75.49
2018-03-24T11:28:31.222Z,75.89
2018-03-24T11:30:56.978Z,74.31
2018-03-24T11:33:22.716Z,75.44
2018-03-24T11:35:48.454Z,74.33
2018-03-24T11:38:14.201Z,73.92
2018-03-24T11:40:39.922Z,74.08
2018-03-24T11:43:05.666Z,74.34
2018-03-24T11:45:31.389Z,74.73
2018-03-24T11:47:57.134Z,73.96
2018-03-24T11:50:22.870Z,73.23
2018-03-24T11:52:48.599Z,73.32
2018-03-24T11:55:14.339Z,72.86
2018-03-24T11:57:40.062Z,73.51
2018-03-24T12:00:06.767Z,72.69
2018-03-24T12:02:32.494Z,71.92
2018-03-24T12:04:58.230Z,73.86
2018-03-24T12:07:23.955Z,73.34
2018-03-24T12:09:49.686Z,72.98
2018-03-24T12:12:15.402Z,73.44
2018-03-24T12:14:41.139Z,73.00
2018-03-24T12:17:06.919Z,73.88
2018-03-24T12:19:32.918Z,72.54
2018-03-24T12:21:58.653Z,74.28
2018-03-24T12:24:24.382Z,74.41
2018-03-24T12:26:50.101Z,73.65
2018-03-24T12:29:15.859Z,72.91
2018-03-24T12:31:41.606Z,73.68
2018-03-24T12:34:07.345Z,73.53
2018-03-24T12:36:33.210Z,72.48
2018-03-24T12:38:58.974Z,72.76
2018-03-24T12:41:25.813Z,72.27
2018-03-24T12:43:51.549Z,72.86
2018-03-24T12:46:17.286Z,73.21
2018-03-24T12:48:43.032Z,72.02
2018-03-24T12:51:08.765Z,72.60
2018-03-24T12:53:34.479Z,72.99
2018-03-24T12:56:00.218Z,71.76
2018-03-24T12:58:25.941Z,73.15
2018-03-24T13:00:51.675Z,71.46
2018-03-24T13:03:17.397Z,72.11
2018-03-24T13:05:43.145Z,73.16
2018-03-24T13:08:08.877Z,73.11
2018-03-24T13:10:34.618Z,73.68
2018-03-24T13:13:00.341Z,73.11
2018-03-24T13:15:26.085Z,72.83
2018-03-24T13:17:51.810Z,72.69
2018-03-24T13:20:17.565Z,71.67
2018-03-24T13:22:43.289Z,72.21
2018-03-24T13:25:09.085Z,71.61
2018-03-24T13:27:34.780Z,72.13
2018-03-24T13:30:00.513Z,71.44
2018-03-24T13:32:26.259Z,71.94
2018-03-24T13:34:51.990Z,72.05
2018-03-24T13:37:17.726Z,71.22
2018-03-24T13:39:43.445Z,71.91
2018-03-24T13:42:09.182Z,71.61
2018-03-24T13:44:34.911Z,71.49
2018-03-24T13:47:00.649Z,71.27
2018-03-24T13:49:26.386Z,72.22
2018-03-24T13:51:52.118Z,71.26
2018-03-24T13:54:17.901Z,70.70
2018-03-24T13:56:43.654Z,71.80
2018-03-24T13:59:09.393Z,70.47
2018-03-24T14:01:35.121Z,71.62
2018-03-24T14:04:01.070Z,71.19
2018-03-24T14:06:26.760Z,70.44
2018-03-24T14:08:52.478Z,70.78
2018-03-24T14:11:18.206Z,70.87
2018-03-24T14:13:43.942Z,71.34
2018-03-24T14:16:09.679Z,71.41
2018-03-24T14:18:35.410Z,70.95
2018-03-24T14:21:01.136Z,71.44
2018-03-24T14:23:26.867Z,71.76
2018-03-24T14:25:52.589Z,71.44
2018-03-24T14:28:18.332Z,71.58
2018-03-24T14:30:44.068Z,71.23
2018-03-24T14:33:09.799Z,71.47
2018-03-24T14:35:35.543Z,71.65
2018-03-24T14:38:01.300Z,71.35
2018-03-24T14:40:27.030Z,72.04
2018-03-24T14:42:52.765Z,71.02
2018-03-24T14:45:18.494Z,71.91
2018-03-24T14:47:44.236Z,72.45
2018-03-24T14:50:09.954Z,72.25
2018-03-24T14:52:35.718Z,72.48
2018-03-24T14:55:01.451Z,72.35
2018-03-24T14:57:27.174Z,72.57
2018-03-24T14:59:52.901Z,73.00
2018-03-24T15:02:18.618Z,73.22
2018-03-24T15:04:44.362Z,72.96
2018-03-24T15:07:10.097Z,73.24
2018-03-24T15:09:35.843Z,73.44
2018-03-24T15:12:01.570Z,72.71
2018-03-24T15:14:27.307Z,73.17
2018-03-24T15:16:53.041Z,72.99
2018-03-24T15:19:18.779Z,72.70
2018-03-24T15:21:45.408Z,73.29
2018-03-24T15:24:11.259Z,73.06
2018-03-24T15:26:37.077Z,73.36
2018-03-24T15:29:15.322Z,73.07
2018-03-24T15:31:53.707Z,73.20
2018-03-24T15:34:31.700Z,73.31
2018-03-24T15:36:57.430Z,73.21
2018-03-24T15:39:23.364Z,73.47
2018-03-24T15:41:49.087Z,72.94
2018-03-24T15:44:14.817Z,72.89
2018-03-24T15:46:40.543Z,73.36
2018-03-24T15:49:06.440Z,73.34
2018-03-24T15:51:32.296Z,73.74
2018-03-24T15:53:58.266Z,74.72
2018-03-24T15:56:23.998Z,73.84
2018-03-24T15:58:49.754Z,73.44
2018-03-24T16:01:15.477Z,73.53
2018-03-24T16:03:41.198Z,73.82
2018-03-24T16:06:06.930Z,73.66
2018-03-24T16:08:32.650Z,74.18
2018-03-24T16:10:58.378Z,74.21
2018-03-24T16:13:24.101Z,73.94
2018-03-24T16:15:49.842Z,74.35
2018-03-24T16:18:15.582Z,74.25
2018-03-24T16:20:41.322Z,74.42
2018-03-24T16:23:07.059Z,74.27
2018-03-24T16:25:32.803Z,74.07
2018-03-24T16:27:58.543Z,74.62
2018-03-24T16:30:24.275Z,74.20
2018-03-24T16:32:50.001Z,74.56
2018-03-24T16:35:15.735Z,74.65
2018-03-24T16:37:41.457Z,74.08
2018-03-24T16:40:07.187Z,74.17
2018-03-24T16:42:32.922Z,74.06
2018-03-24T16:44:58.646Z,74.70
2018-03-24T16:47:24.381Z,74.97
2018-03-24T16:49:50.122Z,74.81
2018-03-24T16:52:15.869Z,74.98
2018-03-24T16:54:41.596Z,75.23
2018-03-24T16:57:07.342Z,75.34
2018-03-24T16:59:33.083Z,75.78
2018-03-24T17:01:58.834Z,76.07
2018-03-24T17:04:24.574Z,76.54
2018-03-24T17:06:50.329Z,76.96
2018-03-24T17:09:16.065Z,77.22
2018-03-24T17:11:41.825Z,77.29
2018-03-24T17:14:07.536Z,77.48
2018-03-24T17:16:33.276Z,77.70
2018-03-24T17:18:59.010Z,78.11
2018-03-24T17:21:24.746Z,77.98
2018-03-24T17:23:50.483Z,77.49
2018-03-24T17:26:16.239Z,77.19
2018-03-24T17:28:41.967Z,76.72
2018-03-24T17:31:07.730Z,75.69
2018-03-24T17:33:33.477Z,75.10
2018-03-24T17:35:59.211Z,75.18
2018-03-24T17:38:24.968Z,75.54
2018-03-24T17:40:50.720Z,75.36
2018-03-24T17:43:16.478Z,75.59
2018-03-24T17:45:42.222Z,76.18
2018-03-24T17:48:07.979Z,75.92
2018-03-24T17:50:33.732Z,76.32
2018-03-24T17:52:59.484Z,76.07
2018-03-24T17:55:25.224Z,75.84
2018-03-24T17:57:50.967Z,75.46
2018-03-24T18:00:16.716Z,75.11
2018-03-24T18:02:42.454Z,74.58
2018-03-24T18:05:08.209Z,74.92
2018-03-24T18:07:34.172Z,74.34
2018-03-24T18:09:59.953Z,74.86
2018-03-24T18:12:25.678Z,75.01
2018-03-24T18:14:51.407Z,74.80
2018-03-24T18:17:17.155Z,74.30
2018-03-24T18:19:42.886Z,74.59
2018-03-24T18:22:08.641Z,74.35
2018-03-24T18:24:34.386Z,74.44
2018-03-24T18:27:00.132Z,74.96
2018-03-24T18:29:25.875Z,74.67
2018-03-24T18:31:51.634Z,74.97
2018-03-24T18:34:17.384Z,75.13
2018-03-24T18:36:43.142Z,75.54
2018-03-24T18:39:08.902Z,75.55
2018-03-24T18:41:34.630Z,75.68
2018-03-24T18:44:00.372Z,75.85
2018-03-24T18:46:26.127Z,75.91
2018-03-24T18:48:51.915Z,75.54
2018-03-24T18:51:17.657Z,75.87
2018-03-24T18:53:43.449Z,75.62
2018-03-24T18:56:09.214Z,76.11
2018-03-24T18:58:34.955Z,76.34
2018-03-24T19:01:00.690Z,77.39
2018-03-24T19:03:26.464Z,76.38
2018-03-24T19:05:52.247Z,77.63
2018-03-24T19:08:18.009Z,76.68
2018-03-24T19:10:43.775Z,76.86
2018-03-24T19:13:09.540Z,76.70
2018-03-24T19:15:35.279Z,76.70
2018-03-24T19:18:01.023Z,77.19
2018-03-24T19:20:26.774Z,77.25
2018-03-24T19:22:52.502Z,77.53
2018-03-24T19:25:18.247Z,77.97
2018-03-24T19:27:43.975Z,77.98
2018-03-24T19:30:09.745Z,78.25
2018-03-24T19:32:35.495Z,77.66
2018-03-24T19:35:01.248Z,77.25
2018-03-24T19:37:27.073Z,77.69
2018-03-24T19:39:52.770Z,77.92
2018-03-24T19:42:18.495Z,77.59
2018-03-24T19:44:44.256Z,78.01
2018-03-24T19:47:09.994Z,77.84
2018-03-24T19:49:35.771Z,77.83
2018-03-24T19:52:01.506Z,77.87
2018-03-24T19:54:27.246Z,78.27
2018-03-24T19:56:52.970Z,77.93
2018-03-24T19:59:18.702Z,78.14
2018-03-24T20:01:44.437Z,78.31
2018-03-24T20:04:10.174Z,78.42
2018-03-24T20:06:35.919Z,78.42
2018-03-24T20:09:01.652Z,78.65
2018-03-24T20:11:27.386Z,78.55
2018-03-24T20:13:53.162Z,78.21
2018-03-24T20:16:18.898Z,78.61
2018-03-24T20:18:44.633Z,79.08
2018-03-24T20:21:10.383Z,78.94
2018-03-24T20:23:36.122Z,79.72
2018-03-24T20:26:01.886Z,78.20
2018-03-24T20:28:27.638Z,77.96
2018-03-24T20:30:53.391Z,78.32
2018-03-24T20:33:19.123Z,78.97
2018-03-24T20:35:44.871Z,79.93
2018-03-24T20:38:10.607Z,78.34
2018-03-24T20:40:36.360Z,79.08
2018-03-24T20:43:02.086Z,79.79
2018-03-24T20:45:27.822Z,80.10
2018-03-24T20:47:53.565Z,80.61
2018-03-24T20:50:19.310Z,80.46
2018-03-24T20:52:45.038Z,81.18
2018-03-24T20:55:10.782Z,80.23
2018-03-24T20:57:36.515Z,80.76
2018-03-24T21:00:02.284Z,80.44
2018-03-24T21:02:28.040Z,80.45
2018-03-24T21:04:53.776Z,80.27
2018-03-24T21:07:19.533Z,80.09
2018-03-24T21:09:45.275Z,79.29
2018-03-24T21:12:11.088Z,80.53
2018-03-24T21:14:36.823Z,79.56
2018-03-24T21:17:02.579Z,79.87
2018-03-24T21:19:28.549Z,80.02
2018-03-24T21:21:54.322Z,80.01
2018-03-24T21:24:20.122Z,79.81
2018-03-24T21:26:45.825Z,80.07
2018-03-24T21:29:11.566Z,80.15
2018-03-24T21:31:37.313Z,80.04
2018-03-24T21:34:03.058Z,79.95
2018-03-24T21:36:28.790Z,80.05
2018-03-24T21:38:54.527Z,80.13
2018-03-24T21:41:20.278Z,80.09
2018-03-24T21:43:46.023Z,79.79
2018-03-24T21:46:11.774Z,80.00
2018-03-24T21:48:37.539Z,80.09
2018-03-24T21:51:03.312Z,79.84
2018-03-24T21:53:29.071Z,79.64
2018-03-24T21:55:54.808Z,79.66
2018-03-24T21:58:20.558Z,79.49
2018-03-24T22:00:46.305Z,79.04
2018-03-24T22:03:12.060Z,80.25
2018-03-24T22:05:37.795Z,80.09
2018-03-24T22:08:03.538Z,80.02
2018-03-24T22:10:29.270Z,79.77
2018-03-24T22:12:55.065Z,79.69
2018-03-24T22:15:21.028Z,80.42
2018-03-24T22:17:46.777Z,80.12
2018-03-24T22:20:12.501Z,80.08
2018-03-24T22:22:38.243Z,79.52
2018-03-24T22:25:03.978Z,79.86
2018-03-24T22:27:29.730Z,80.20
2018-03-24T22:29:55.467Z,80.21
2018-03-24T22:32:21.222Z,80.00
2018-03-24T22:34:46.965Z,80.02
2018-03-24T22:37:12.702Z,79.56
2018-03-24T22:39:38.486Z,79.13
2018-03-24T22:42:04.204Z,79.10
2018-03-24T22:44:29.938Z,79.21
2018-03-24T22:46:55.674Z,78.72
2018-03-24T22:49:21.411Z,78.35
2018-03-24T22:51:47.134Z,78.44
2018-03-24T22:54:12.862Z,78.47
2018-03-24T22:56:38.582Z,78.50
2018-03-24T22:59:04.323Z,78.13
2018-03-24T23:01:30.048Z,78.02
2018-03-24T23:03:55.781Z,78.43
2018-03-24T23:06:21.502Z,78.43
2018-03-24T23:08:47.251Z,78.23
2018-03-24T23:11:12.982Z,78.34
2018-03-24T23:13:38.726Z,77.93
2018-03-24T23:16:04.454Z,77.64
2018-03-24T23:18:30.189Z,76.96
2018-03-24T23:20:55.949Z,77.03
2018-03-24T23:23:21.692Z,76.08
2018-03-24T23:25:47.421Z,76.96
2018-03-24T23:28:13.145Z,76.33
2018-03-24T23:30:38.864Z,76.48
2018-03-24T23:33:04.597Z,76.49
2018-03-24T23:35:30.326Z,76.72
2018-03-24T23:37:56.050Z,76.80
2018-03-24T23:40:21.797Z,76.33
2018-03-24T23:42:47.534Z,76.86
2018-03-24T23:45:13.278Z,77.45
2018-03-24T23:47:39.030Z,76.76
2018-03-24T23:50:04.783Z,76.94
2018-03-24T23:52:30.554Z,76.39
2018-03-24T23:54:56.254Z,76.56
2018-03-24T23:57:21.991Z,76.68
2018-03-24T23:59:47.742Z,76.75
